Time;durP1;ratioP1;P1;durP2;ratioP2;P2;SDS_P1;SDS_P2;PMS_P1;PMS_P2;Temp;Humidity;BMP_temperature;BMP_pressure;BME280_temperature;BME280_humidity;BME280_pressure;Samples;Min_cycle;Max_cycle;Signal;HPM_P1;HPM_P2
2023/05/19 00:02:17;;;;;;;36.75;17.70;;;;;;;10.40;100.00;92747.78;4953748;29;20532;-75
2023/05/19 00:04:43;;;;;;;33.47;17.52;;;;;;;10.38;100.00;92750.69;4954046;28;20122;-75
2023/05/19 00:07:16;;;;;;;33.38;17.50;;;;;;;10.36;100.00;92752.81;4953928;29;20706;-75
2023/05/19 00:09:42;;;;;;;31.23;17.88;;;;;;;10.32;100.00;92754.41;4953319;29;20141;-75
2023/05/19 00:12:09;;;;;;;29.27;17.67;;;;;;;10.32;100.00;92748.41;4936489;29;20549;-75
2023/05/19 00:14:35;;;;;;;38.42;19.00;;;;;;;10.30;100.00;92742.66;4953223;28;20034;-75
2023/05/19 00:17:01;;;;;;;31.05;18.13;;;;;;;10.29;100.00;92748.94;4952016;29;20043;-75
2023/05/19 00:19:30;;;;;;;33.88;17.20;;;;;;;10.29;100.00;92743.72;4953132;29;20035;-75
2023/05/19 00:21:57;;;;;;;33.30;17.92;;;;;;;10.28;100.00;92742.91;4953354;29;20035;-75
2023/05/19 00:24:23;;;;;;;31.10;17.67;;;;;;;10.31;100.00;92739.78;4953303;28;20031;-75
2023/05/19 00:26:48;;;;;;;31.33;17.60;;;;;;;10.30;100.00;92740.06;4953507;29;20043;-76
2023/05/19 00:29:17;;;;;;;30.40;17.67;;;;;;;10.31;100.00;92744.22;4953455;29;20043;-76
2023/05/19 00:31:43;;;;;;;27.00;15.75;;;;;;;10.31;100.00;92733.75;4936118;29;20489;-76
2023/05/19 00:34:08;;;;;;;30.05;15.82;;;;;;;10.28;100.00;92732.44;4952996;28;20119;-76
2023/05/19 00:36:34;;;;;;;25.77;15.15;;;;;;;10.33;100.00;92734.25;4953199;29;20047;-76
2023/05/19 00:39:00;;;;;;;25.27;14.25;;;;;;;10.35;100.00;92734.75;4936057;29;20540;-76
2023/05/19 00:41:26;;;;;;;22.38;12.82;;;;;;;10.34;100.00;92733.22;4936525;29;20074;-76
2023/05/19 00:43:52;;;;;;;21.95;12.75;;;;;;;10.29;100.00;92725.41;4936069;29;20070;-76
2023/05/19 00:46:18;;;;;;;21.88;12.95;;;;;;;10.28;100.00;92729.81;4935798;29;20047;-75
2023/05/19 00:48:44;;;;;;;22.95;13.32;;;;;;;10.32;100.00;92732.72;4935757;29;20069;-76
2023/05/19 00:51:13;;;;;;;27.48;15.20;;;;;;;10.36;100.00;92731.09;4919857;29;20433;-76
2023/05/19 00:53:39;;;;;;;30.58;15.75;;;;;;;10.27;100.00;92724.84;4950692;28;20384;-76
2023/05/19 00:56:05;;;;;;;21.75;12.73;;;;;;;10.32;100.00;92725.63;4951859;28;20039;-76
2023/05/19 00:58:33;;;;;;;22.25;13.05;;;;;;;10.21;100.00;92727.53;4955686;29;20155;-75
2023/05/19 01:01:02;;;;;;;24.85;13.57;;;;;;;10.14;100.00;92729.72;4955595;29;20054;-76
2023/05/19 01:03:34;;;;;;;24.70;13.57;;;;;;;10.12;100.00;92723.97;4955498;28;20509;-76
2023/05/19 01:06:03;;;;;;;25.55;14.90;;;;;;;10.11;100.00;92721.63;4956872;29;20047;-76
2023/05/19 01:08:34;;;;;;;23.33;13.60;;;;;;;10.10;100.00;92722.69;4955386;29;20031;-76
2023/05/19 01:11:00;;;;;;;24.80;14.32;;;;;;;10.07;100.00;92710.94;4956677;29;20038;-76
2023/05/19 01:13:29;;;;;;;26.63;12.70;;;;;;;10.03;100.00;92714.41;4956538;28;20045;-76
2023/05/19 01:16:11;;;;;;;24.08;13.15;;;;;;;10.00;100.00;92711.28;4955951;29;20031;-76
2023/05/19 01:18:45;;;;;;;22.27;13.23;;;;;;;10.00;100.00;92713.13;4955251;29;20043;-76
2023/05/19 01:21:36;;;;;;;28.05;12.85;;;;;;;10.00;100.00;92711.28;4956444;29;20050;-76
2023/05/19 01:24:13;;;;;;;24.55;13.05;;;;;;;10.03;100.00;92712.56;4956532;28;20050;-76
2023/05/19 01:27:06;;;;;;;23.33;12.95;;;;;;;10.05;100.00;92713.06;4956313;29;20031;-76
2023/05/19 01:29:34;;;;;;;26.15;12.65;;;;;;;10.06;100.00;92711.22;4954966;29;20163;-77
2023/05/19 01:32:03;;;;;;;24.55;12.43;;;;;;;10.04;100.00;92710.72;4955392;29;20050;-77
2023/05/19 01:34:30;;;;;;;21.95;11.88;;;;;;;10.04;100.00;92715.94;4955092;28;20046;-76
2023/05/19 01:36:59;;;;;;;25.90;12.38;;;;;;;10.05;100.00;92712.28;4939132;29;20186;-77
2023/05/19 01:39:25;;;;;;;24.38;12.63;;;;;;;10.06;100.00;92713.84;4956245;29;20058;-76
2023/05/19 01:41:51;;;;;;;24.88;13.27;;;;;;;10.06;100.00;92716.44;4954854;29;20043;-76
2023/05/19 01:44:17;;;;;;;26.48;12.65;;;;;;;10.04;100.00;92716.72;4956201;28;20042;-76
2023/05/19 01:46:44;;;;;;;21.08;12.32;;;;;;;10.02;100.00;92724.09;4938563;29;20394;-76
2023/05/19 01:49:12;;;;;;;20.85;11.38;;;;;;;9.99;100.00;92711.53;4956816;29;20031;-78
2023/05/19 01:51:39;;;;;;;19.02;12.02;;;;;;;9.98;100.00;92712.63;4954725;29;20106;-76
2023/05/19 01:54:05;;;;;;;24.42;12.35;;;;;;;10.00;100.00;92716.50;4954350;28;20054;-76
2023/05/19 01:56:42;;;;;;;21.45;11.80;;;;;;;9.99;100.00;92714.16;4938866;29;20493;-76
2023/05/19 01:59:22;;;;;;;22.35;12.23;;;;;;;10.01;100.00;92712.03;4938536;29;20045;-76
2023/05/19 02:01:52;;;;;;;23.05;12.70;;;;;;;9.97;100.00;92713.66;4955733;29;20079;-76
2023/05/19 02:04:25;;;;;;;23.52;13.35;;;;;;;9.98;100.00;92716.00;4955561;28;20040;-76
2023/05/19 02:07:00;;;;;;;22.67;13.10;;;;;;;9.95;100.00;92718.38;4955665;29;20050;-76
2023/05/19 02:09:38;;;;;;;22.10;13.05;;;;;;;9.94;100.00;92712.38;4955046;28;20074;-76
2023/05/19 02:12:18;;;;;;;24.10;13.32;;;;;;;9.96;100.00;92714.72;4955524;29;20053;-76
2023/05/19 02:14:49;;;;;;;24.20;13.43;;;;;;;9.89;100.00;92722.88;4954079;28;20525;-76
2023/05/19 02:17:17;;;;;;;23.20;13.23;;;;;;;9.88;100.00;92715.31;4938477;29;20122;-76
2023/05/19 02:19:43;;;;;;;21.63;12.63;;;;;;;9.85;100.00;92715.88;4954432;29;20057;-76
2023/05/19 02:22:09;;;;;;;27.05;14.23;;;;;;;9.84;100.00;92717.72;4954274;29;20138;-75
2023/05/19 02:24:36;;;;;;;26.05;13.43;;;;;;;9.84;100.00;92716.91;4953942;28;20417;-75
2023/05/19 02:27:02;;;;;;;28.88;14.18;;;;;;;9.84;100.00;92712.47;4953968;29;20114;-75
2023/05/19 02:29:28;;;;;;;25.70;13.02;;;;;;;9.83;100.00;92710.13;4955129;29;20035;-76
2023/05/19 02:31:53;;;;;;;24.85;13.60;;;;;;;9.82;100.00;92703.31;4953867;29;20522;-76
2023/05/19 02:34:19;;;;;;;25.70;13.75;;;;;;;9.82;100.00;92705.94;4937842;29;20064;-76
2023/05/19 02:36:48;;;;;;;29.13;14.52;;;;;;;9.80;100.00;92704.41;4938039;29;20114;-75
2023/05/19 02:39:14;;;;;;;25.52;14.40;;;;;;;9.82;100.00;92700.72;4953719;29;20089;-76
2023/05/19 02:41:40;;;;;;;29.40;14.32;;;;;;;9.80;100.00;92699.16;4953620;29;20035;-76
2023/05/19 02:44:06;;;;;;;26.77;14.25;;;;;;;9.77;100.00;92697.13;4953488;28;20045;-76
2023/05/19 02:46:32;;;;;;;26.73;14.57;;;;;;;9.76;100.00;92698.16;4953250;29;20329;-76
2023/05/19 02:48:58;;;;;;;28.25;14.48;;;;;;;9.75;100.00;92699.22;4954717;29;20113;-76
2023/05/19 02:51:24;;;;;;;26.20;14.52;;;;;;;9.77;100.00;92696.31;4955139;29;20047;-76
2023/05/19 02:53:49;;;;;;;26.65;13.90;;;;;;;9.76;100.00;92695.53;4937212;29;20531;-76
2023/05/19 02:56:15;;;;;;;25.17;13.80;;;;;;;9.77;100.00;92685.84;4953670;29;20528;-76
2023/05/19 02:58:42;;;;;;;26.48;14.32;;;;;;;9.76;100.00;92692.94;4937591;29;20405;-76
2023/05/19 03:01:08;;;;;;;27.73;15.20;;;;;;;9.76;100.00;92684.31;4953559;29;20039;-76
2023/05/19 03:03:34;;;;;;;25.38;14.40;;;;;;;9.70;100.00;92699.25;4921388;29;20027;-76
2023/05/19 03:06:00;;;;;;;29.10;15.23;;;;;;;9.70;100.00;92695.84;4953337;29;20139;-75
2023/05/19 03:08:27;;;;;;;27.48;14.60;;;;;;;9.63;100.00;92692.78;4954888;29;20050;-76
2023/05/19 03:10:52;;;;;;;29.90;14.55;;;;;;;9.63;100.00;92690.16;4953032;29;20032;-76
2023/05/19 03:13:18;;;;;;;26.02;14.05;;;;;;;9.62;100.00;92686.78;4937100;29;20413;-76
2023/05/19 03:15:44;;;;;;;25.08;13.32;;;;;;;9.63;100.00;92685.72;4953157;29;20046;-76
2023/05/19 03:18:11;;;;;;;25.95;14.20;;;;;;;9.63;100.00;92690.94;4937358;29;20043;-76
2023/05/19 03:20:37;;;;;;;30.17;15.10;;;;;;;9.58;100.00;92683.16;4952726;28;20490;-76
2023/05/19 03:23:03;;;;;;;29.75;15.15;;;;;;;9.61;100.00;92690.44;4954562;28;20039;-76
2023/05/19 03:25:29;;;;;;;31.17;16.17;;;;;;;9.63;100.00;92690.16;4954337;29;20046;-76
2023/05/19 03:27:54;;;;;;;30.10;15.35;;;;;;;9.63;100.00;92690.94;4952020;29;20031;-76
2023/05/19 03:30:21;;;;;;;27.50;15.15;;;;;;;9.63;100.00;92690.94;4952630;29;20036;-76
2023/05/19 03:33:12;;;;;;;31.55;16.40;;;;;;;9.65;100.00;92694.06;4952652;28;20142;-76
2023/05/19 03:35:38;;;;;;;36.20;16.48;;;;;;;9.65;100.00;92688.06;4952721;29;20093;-76
2023/05/19 03:38:05;;;;;;;29.63;16.30;;;;;;;9.63;100.00;92695.41;4936746;29;20086;-76
2023/05/19 03:40:30;;;;;;;29.17;14.93;;;;;;;9.62;100.00;92689.41;4952842;29;20047;-76
2023/05/19 03:43:02;;;;;;;30.95;16.17;;;;;;;9.63;100.00;92693.56;4952017;28;20409;-74
2023/05/19 03:45:28;;;;;;;34.03;15.30;;;;;;;9.64;100.00;92695.13;4951813;29;20039;-76
2023/05/19 03:47:54;;;;;;;30.98;16.23;;;;;;;9.64;100.00;92697.75;4936611;29;20097;-76
2023/05/19 03:50:41;;;;;;;31.77;16.30;;;;;;;9.65;100.00;92701.91;4951937;29;20508;-76
2023/05/19 03:53:14;;;;;;;29.80;15.63;;;;;;;9.68;100.00;92698.75;4952423;28;20506;-76
2023/05/19 03:55:40;;;;;;;31.95;15.68;;;;;;;9.66;100.00;92700.06;4952535;29;20053;-76
2023/05/19 03:58:05;;;;;;;35.33;16.90;;;;;;;9.67;100.00;92701.66;4952470;29;20031;-76
2023/05/19 04:00:31;;;;;;;32.90;17.00;;;;;;;9.67;100.00;92702.41;4952234;29;20173;-76
2023/05/19 04:02:57;;;;;;;36.65;16.65;;;;;;;9.68;100.00;92704.00;4936230;28;20042;-76
2023/05/19 04:05:22;;;;;;;29.42;16.50;;;;;;;9.69;100.00;92699.53;4936584;29;20044;-76
2023/05/19 04:07:48;;;;;;;33.30;16.33;;;;;;;9.68;100.00;92709.22;4936341;29;20050;-75
2023/05/19 04:10:13;;;;;;;29.38;16.30;;;;;;;9.68;100.00;92704.00;4952188;29;20054;-76
2023/05/19 04:12:39;;;;;;;177.48;17.58;;;;;;;9.61;100.00;92708.72;4953516;29;20513;-76
2023/05/19 04:15:05;;;;;;;33.17;15.38;;;;;;;9.57;100.00;92707.75;4952054;28;20102;-76
2023/05/19 04:17:31;;;;;;;34.20;16.77;;;;;;;9.56;100.00;92711.41;4952140;29;20049;-76
2023/05/19 04:19:57;;;;;;;33.90;16.88;;;;;;;9.58;100.00;92719.75;4936269;29;20130;-76
2023/05/19 04:22:22;;;;;;;29.50;15.27;;;;;;;9.63;100.00;92713.69;4953215;29;20046;-76
2023/05/19 04:24:50;;;;;;;30.98;16.13;;;;;;;9.65;100.00;92714.97;4952017;28;20020;-76
2023/05/19 04:27:16;;;;;;;31.63;15.80;;;;;;;9.61;100.00;92718.41;4952047;29;20414;-76
2023/05/19 04:29:42;;;;;;;27.80;15.63;;;;;;;9.58;100.00;92710.06;4951715;29;20050;-76
2023/05/19 04:32:08;;;;;;;30.17;15.05;;;;;;;9.59;100.00;92714.25;4953065;29;20031;-75
2023/05/19 04:34:34;;;;;;;29.65;15.88;;;;;;;9.62;100.00;92709.53;4951724;28;20468;-76
2023/05/19 04:37:02;;;;;;;31.17;16.10;;;;;;;9.63;100.00;92711.84;4951709;29;20063;-76
2023/05/19 04:39:28;;;;;;;37.88;17.65;;;;;;;9.64;100.00;92716.03;4952168;29;20050;-76
2023/05/19 04:41:55;;;;;;;36.08;17.15;;;;;;;9.65;100.00;92714.97;4936000;29;20035;-75
2023/05/19 04:44:21;;;;;;;30.17;16.15;;;;;;;9.64;100.00;92716.03;4952869;28;20490;-76
2023/05/19 04:46:52;;;;;;;32.08;16.48;;;;;;;9.61;100.00;92721.03;4951140;29;20043;-76
2023/05/19 04:49:19;;;;;;;27.38;15.05;;;;;;;9.59;100.00;92714.25;4951925;29;20273;-76
2023/05/19 04:51:48;;;;;;;28.90;15.68;;;;;;;9.62;100.00;92723.38;4951751;29;20027;-76
2023/05/19 04:54:15;;;;;;;27.27;14.77;;;;;;;9.63;100.00;92719.69;4951257;28;20122;-75
2023/05/19 04:56:42;;;;;;;32.78;16.45;;;;;;;9.62;100.00;92718.16;4904505;29;20121;-76
2023/05/19 04:59:08;;;;;;;27.08;14.82;;;;;;;9.62;100.00;92725.22;4951533;29;20031;-76
2023/05/19 05:01:39;;;;;;;26.80;14.30;;;;;;;9.62;100.00;92726.00;4950938;29;20047;-76
2023/05/19 05:04:07;;;;;;;26.85;14.18;;;;;;;9.61;100.00;92727.03;4951711;28;20035;-78
2023/05/19 05:06:37;;;;;;;26.98;13.70;;;;;;;9.61;100.00;92724.41;4952490;29;20034;-77
2023/05/19 05:09:04;;;;;;;22.58;12.93;;;;;;;9.61;100.00;92727.03;4937407;29;20047;-78
2023/05/19 05:11:30;;;;;;;25.35;14.25;;;;;;;9.64;100.00;92721.28;4939020;29;20039;-77
2023/05/19 05:13:59;;;;;;;28.25;14.38;;;;;;;9.70;100.00;92728.00;4904958;29;20043;-77
2023/05/19 05:16:27;;;;;;;29.88;14.43;;;;;;;9.69;100.00;92721.22;4936597;29;20131;-77
2023/05/19 05:18:53;;;;;;;26.35;14.20;;;;;;;9.70;100.00;92727.22;4936265;29;20118;-77
2023/05/19 05:21:19;;;;;;;24.20;13.57;;;;;;;9.72;100.00;92730.34;4953771;29;20041;-77
2023/05/19 05:23:45;;;;;;;23.92;12.77;;;;;;;9.79;100.00;92730.81;4936237;29;20035;-76
2023/05/19 05:26:18;;;;;;;23.90;13.05;;;;;;;9.79;100.00;92726.38;4936354;29;20027;-77
2023/05/19 05:28:45;;;;;;;24.98;13.95;;;;;;;9.74;100.00;92730.84;4936012;29;20059;-77
2023/05/19 05:31:11;;;;;;;25.27;12.73;;;;;;;9.76;100.00;92721.69;4936281;29;20125;-78
2023/05/19 05:33:38;;;;;;;27.23;14.23;;;;;;;9.76;100.00;92720.91;4935620;29;20050;-77
2023/05/19 05:36:04;;;;;;;22.13;12.00;;;;;;;9.78;100.00;92722.19;4952399;29;20040;-77
2023/05/19 05:38:30;;;;;;;20.33;10.75;;;;;;;9.78;100.00;92719.56;4951625;29;20637;-77
2023/05/19 05:40:56;;;;;;;21.73;11.23;;;;;;;9.80;100.00;92714.84;4936796;29;20039;-77
2023/05/19 05:43:21;;;;;;;21.70;11.52;;;;;;;9.77;100.00;92717.22;4954485;28;20536;-76
2023/05/19 05:45:53;;;;;;;21.15;12.30;;;;;;;9.78;100.00;92724.03;4940458;29;20031;-77
2023/05/19 05:48:19;;;;;;;38.75;13.82;;;;;;;9.76;100.00;92723.53;4940293;29;20043;-77
2023/05/19 05:50:47;;;;;;;23.52;12.90;;;;;;;9.72;100.00;92722.50;4939578;29;20062;-78
2023/05/19 05:53:18;;;;;;;26.75;14.70;;;;;;;9.73;100.00;92717.00;4939451;29;20043;-76
2023/05/19 05:55:46;;;;;;;26.23;13.70;;;;;;;9.75;100.00;92720.13;4939719;29;20035;-77
2023/05/19 05:58:13;;;;;;;24.95;13.50;;;;;;;9.74;100.00;92720.41;4939445;29;20085;-77
2023/05/19 06:00:42;;;;;;;222.48;35.40;;;;;;;9.72;100.00;92731.13;4920193;29;20055;-77
2023/05/19 06:03:09;;;;;;;235.20;23.38;;;;;;;9.67;100.00;92725.94;4936309;29;20052;-77
2023/05/19 06:05:36;;;;;;;41.63;21.80;;;;;;;9.69;100.00;92726.44;4947648;29;20074;-77
2023/05/19 06:08:02;;;;;;;17.52;10.10;;;;;;;9.70;100.00;92729.84;4923569;29;20138;-77
2023/05/19 06:10:28;;;;;;;21.85;11.70;;;;;;;9.71;100.00;92726.19;4938925;29;20121;-77
2023/05/19 06:12:54;;;;;;;339.83;15.98;;;;;;;9.60;100.00;92722.88;4955218;28;20453;-77
2023/05/19 06:15:21;;;;;;;305.42;16.95;;;;;;;9.62;100.00;92722.59;4939272;29;20070;-77
2023/05/19 06:18:00;;;;;;;432.63;19.60;;;;;;;9.60;100.00;92728.09;4939663;29;20111;-77
2023/05/19 06:20:26;;;;;;;597.00;22.75;;;;;;;9.59;100.00;92722.09;4956067;29;20459;-78
2023/05/19 06:22:52;;;;;;;63.00;14.10;;;;;;;9.60;100.00;92728.09;4910064;28;20043;-78
2023/05/19 06:25:20;;;;;;;515.47;19.80;;;;;;;9.58;100.00;92730.97;4942222;29;20094;-77
2023/05/19 06:27:46;;;;;;;25.38;13.20;;;;;;;9.62;100.00;92728.59;4941738;29;20059;-78
2023/05/19 06:30:14;;;;;;;26.23;13.48;;;;;;;9.84;100.00;92727.38;4936931;29;20054;-78
2023/05/19 06:32:50;;;;;;;23.52;13.20;;;;;;;9.63;100.00;92735.38;4942806;28;20035;-78
2023/05/19 06:35:20;;;;;;;25.33;13.60;;;;;;;9.61;100.00;92732.25;4943659;29;20039;-76
2023/05/19 06:37:52;;;;;;;23.00;12.95;;;;;;;9.70;100.00;92735.06;4957153;29;20035;-76
2023/05/19 06:40:19;;;;;;;22.92;12.88;;;;;;;9.75;100.00;92740.28;4939019;29;20062;-79
2023/05/19 06:42:44;;;;;;;25.02;13.27;;;;;;;9.71;100.00;92740.03;4940124;28;20036;-76
2023/05/19 06:45:20;;;;;;;24.50;12.25;;;;;;;9.78;100.00;92742.31;4940288;29;20194;-80
2023/05/19 06:47:48;;;;;;;22.33;12.02;;;;;;;9.77;100.00;92741.56;4930701;29;20089;-77
2023/05/19 06:50:14;;;;;;;20.23;10.65;;;;;;;9.82;100.00;92745.97;4939097;29;20062;-77
2023/05/19 06:52:41;;;;;;;19.75;10.23;;;;;;;9.85;100.00;92753.25;4955865;29;20086;-76
2023/05/19 06:55:07;;;;;;;18.02;10.10;;;;;;;9.87;100.00;92751.13;4937078;29;20067;-76
2023/05/19 06:57:34;;;;;;;15.40;9.00;;;;;;;9.91;100.00;92748.78;4938848;29;20134;-77
2023/05/19 07:00:01;;;;;;;14.90;8.73;;;;;;;9.95;100.00;92749.75;4955270;29;20034;-78
2023/05/19 07:02:31;;;;;;;17.00;9.73;;;;;;;9.96;100.00;92753.94;4952969;28;20265;-76
2023/05/19 07:04:57;;;;;;;16.38;9.55;;;;;;;9.96;100.00;92751.34;4951748;28;20043;-78
2023/05/19 07:07:23;;;;;;;16.88;9.55;;;;;;;9.96;100.00;92753.94;4935541;29;20034;-76
2023/05/19 07:09:49;;;;;;;17.70;10.18;;;;;;;10.00;100.00;92752.34;4936568;29;20035;-76
2023/05/19 07:12:16;;;;;;;15.88;9.32;;;;;;;9.97;100.00;92748.44;4920804;29;20043;-76
2023/05/19 07:14:42;;;;;;;15.77;9.43;;;;;;;9.97;100.00;92751.06;4937055;29;20704;-76
2023/05/19 07:17:08;;;;;;;16.27;9.23;;;;;;;9.97;100.00;92755.50;4953003;29;20065;-79
2023/05/19 07:19:36;;;;;;;18.55;9.75;;;;;;;10.00;100.00;92757.56;4933378;29;20167;-79
2023/05/19 07:22:02;;;;;;;14.65;8.85;;;;;;;10.03;100.00;92754.41;4952712;28;20046;-79
2023/05/19 07:24:29;;;;;;;16.85;8.77;;;;;;;10.07;100.00;92755.41;4937979;29;20035;-76
2023/05/19 07:26:55;;;;;;;14.73;8.43;;;;;;;10.08;100.00;92749.13;4941295;28;20027;-77
2023/05/19 07:29:20;;;;;;;12.85;8.02;;;;;;;10.16;100.00;92751.13;4949309;28;20038;-76
2023/05/19 07:31:46;;;;;;;11.93;6.80;;;;;;;10.16;100.00;92750.38;4953635;28;20046;-78
2023/05/19 07:34:11;;;;;;;9.02;5.40;;;;;;;10.25;100.00;92747.94;4952435;28;20054;-79
2023/05/19 07:36:37;;;;;;;9.60;4.40;;;;;;;10.17;100.00;92752.69;4932665;28;20031;-76
2023/05/19 07:39:02;;;;;;;7.15;3.92;;;;;;;10.16;100.00;92745.91;4951191;28;20194;-77
2023/05/19 07:41:28;;;;;;;6.78;4.15;;;;;;;10.13;100.00;92743.84;4936895;29;20141;-77
2023/05/19 07:43:54;;;;;;;6.82;4.10;;;;;;;10.09;100.00;92742.84;4953243;28;20035;-76
2023/05/19 07:46:20;;;;;;;10.75;4.55;;;;;;;10.12;100.00;92739.66;4950815;29;20158;-76
2023/05/19 07:48:46;;;;;;;6.70;4.20;;;;;;;10.19;100.00;92739.34;4933444;29;20046;-77
2023/05/19 07:51:12;;;;;;;8.25;4.43;;;;;;;10.28;100.00;92742.13;4954151;29;20039;-76
2023/05/19 07:53:38;;;;;;;8.40;5.18;;;;;;;10.18;100.00;92749.03;4948413;28;20134;-79
2023/05/19 07:56:04;;;;;;;12.32;5.30;;;;;;;10.14;100.00;92742.78;4933512;29;20067;-77
2023/05/19 07:58:30;;;;;;;8.50;4.63;;;;;;;10.15;100.00;92746.94;4931566;29;20497;-77
2023/05/19 08:00:59;;;;;;;7.70;4.70;;;;;;;10.19;100.00;92745.34;4950330;28;20023;-77
2023/05/19 08:03:25;;;;;;;8.80;4.72;;;;;;;10.12;100.00;92734.44;4954236;28;20444;-77
2023/05/19 08:05:51;;;;;;;7.60;4.20;;;;;;;10.23;100.00;92747.44;4953992;28;20023;-76
2023/05/19 08:08:18;;;;;;;7.95;4.60;;;;;;;10.21;100.00;92747.69;4927850;29;20043;-77
2023/05/19 08:10:44;;;;;;;7.65;4.43;;;;;;;10.17;100.00;92741.44;4952184;28;20233;-76
2023/05/19 08:13:10;;;;;;;7.80;4.50;;;;;;;10.23;100.00;92745.59;4949042;28;20061;-76
2023/05/19 08:15:36;;;;;;;7.10;4.45;;;;;;;10.28;100.00;92747.38;4934948;29;20031;-77
2023/05/19 08:18:02;;;;;;;7.03;4.07;;;;;;;10.20;100.00;92752.16;4933511;29;20517;-77
2023/05/19 08:20:27;;;;;;;8.90;4.80;;;;;;;10.17;100.00;92752.69;4933626;29;20063;-77
2023/05/19 08:22:53;;;;;;;23.08;11.52;;;;;;;10.14;100.00;92750.63;4934127;28;20403;-77
2023/05/19 08:25:19;;;;;;;10.02;6.78;;;;;;;10.15;100.00;92746.94;4928684;29;20031;-78
2023/05/19 08:27:44;;;;;;;19.10;7.22;;;;;;;10.10;100.00;92747.00;4935408;29;20035;-77
2023/05/19 08:30:11;;;;;;;10.20;5.53;;;;;;;10.07;100.00;92746.78;4952443;29;20042;-77
2023/05/19 08:32:36;;;;;;;8.77;5.57;;;;;;;10.03;100.00;92753.63;4949643;28;20134;-77
2023/05/19 08:35:03;;;;;;;9.77;5.28;;;;;;;9.97;100.00;92750.25;4933633;29;20468;-77
2023/05/19 08:37:28;;;;;;;8.30;5.68;;;;;;;9.99;100.00;92745.53;4936010;29;20047;-77
2023/05/19 08:39:54;;;;;;;9.15;5.63;;;;;;;10.06;100.00;92745.22;4950492;28;20117;-77
2023/05/19 08:42:20;;;;;;;10.52;5.80;;;;;;;10.11;100.00;92751.19;4950059;29;20047;-77
2023/05/19 08:44:45;;;;;;;10.27;5.38;;;;;;;10.16;100.00;92751.13;4951824;28;20030;-77
2023/05/19 08:47:12;;;;;;;8.52;5.00;;;;;;;10.20;100.00;92751.38;4950803;28;20482;-78
2023/05/19 08:49:48;;;;;;;7.80;4.40;;;;;;;10.25;100.00;92742.69;4949961;29;20035;-78
2023/05/19 08:52:18;;;;;;;7.18;4.30;;;;;;;10.31;100.00;92746.84;4955361;29;20039;-78
2023/05/19 08:55:06;;;;;;;5.47;3.45;;;;;;;10.33;100.00;92749.94;4952903;28;20051;-78
2023/05/19 08:57:32;;;;;;;8.02;4.22;;;;;;;10.39;100.00;92748.84;4954505;29;20039;-78
2023/05/19 08:59:59;;;;;;;6.00;3.80;;;;;;;10.43;100.00;92749.88;4953945;28;20074;-78
2023/05/19 09:02:24;;;;;;;7.10;4.70;;;;;;;10.55;100.00;92754.69;4938465;29;20126;-78
2023/05/19 09:04:51;;;;;;;8.18;4.80;;;;;;;10.54;100.00;92751.31;4954469;28;20461;-77
2023/05/19 09:07:17;;;;;;;7.75;3.72;;;;;;;10.48;100.00;92752.41;4936961;29;20140;-78
2023/05/19 09:09:43;;;;;;;5.72;3.55;;;;;;;10.46;100.00;92738.06;4952165;29;20062;-78
2023/05/19 09:12:13;;;;;;;7.20;3.67;;;;;;;10.49;100.00;92738.28;4949702;28;20035;-77
2023/05/19 09:14:39;;;;;;;5.43;3.30;;;;;;;10.57;100.00;92736.88;4951660;28;20046;-78
2023/05/19 09:17:05;;;;;;;7.43;3.85;;;;;;;10.65;100.00;92740.72;4952847;28;20519;-78
2023/05/19 09:19:32;;;;;;;8.50;4.15;;;;;;;10.77;100.00;92739.25;4953602;28;20042;-78
2023/05/19 09:22:05;;;;;;;7.68;4.78;;;;;;;10.82;100.00;92746.28;4952274;28;20039;-78
2023/05/19 09:24:30;;;;;;;7.05;4.47;;;;;;;10.84;100.00;92749.38;4949356;28;20050;-78
2023/05/19 09:26:56;;;;;;;8.02;4.55;;;;;;;10.90;100.00;92748.28;4956073;28;20035;-78
2023/05/19 09:29:22;;;;;;;8.27;4.10;;;;;;;10.95;100.00;92753.44;4957989;29;20043;-79
2023/05/19 09:31:51;;;;;;;7.07;4.07;;;;;;;11.06;100.00;92738.38;4955623;28;20497;-78
2023/05/19 09:34:17;;;;;;;6.38;4.00;;;;;;;11.14;100.00;92734.34;4956760;28;20540;-77
2023/05/19 09:36:45;;;;;;;5.57;3.83;;;;;;;11.23;100.00;92743.13;4936885;28;20419;-78
2023/05/19 09:39:21;;;;;;;6.43;4.43;;;;;;;11.30;100.00;92740.91;4954387;28;20039;-80
2023/05/19 09:41:52;;;;;;;6.18;3.03;;;;;;;11.25;100.00;92743.63;4957155;28;20039;-79
2023/05/19 09:44:29;;;;;;;156.63;7.38;;;;;;;11.15;100.00;92743.78;4953892;28;20494;-78
2023/05/19 09:46:55;;;;;;;626.47;16.60;;;;;;;11.00;100.00;92742.13;4950904;28;20058;-78
2023/05/19 09:49:28;;;;;;;409.67;11.98;;;;;;;10.93;100.00;92745.09;4948773;28;20154;-77
2023/05/19 09:51:53;;;;;;;6.22;4.30;;;;;;;10.91;100.00;92739.34;4949545;28;20505;-78
2023/05/19 09:54:21;;;;;;;6.28;3.83;;;;;;;10.79;100.00;92741.59;4950808;28;20057;-78
2023/05/19 09:56:57;;;;;;;6.60;3.63;;;;;;;10.88;100.00;92739.91;4950908;28;20441;-78
2023/05/19 09:59:25;;;;;;;5.05;3.25;;;;;;;11.01;100.00;92734.00;4953602;28;20245;-78
2023/05/19 10:01:55;;;;;;;8.65;4.50;;;;;;;11.01;100.00;92736.59;4949891;28;20073;-78
2023/05/19 10:04:26;;;;;;;5.85;3.55;;;;;;;10.93;100.00;92731.22;4925535;29;20054;-78
2023/05/19 10:06:58;;;;;;;5.72;3.13;;;;;;;10.92;100.00;92740.91;4955721;28;20461;-78
2023/05/19 10:09:25;;;;;;;4.17;2.37;;;;;;;11.08;100.00;92735.47;4951123;28;20805;-78
2023/05/19 10:11:52;;;;;;;5.93;2.97;;;;;;;11.20;100.00;92728.75;4955694;28;20591;-78
2023/05/19 10:14:22;;;;;;;4.60;2.83;;;;;;;11.25;100.00;92728.66;4939611;28;20134;-78
2023/05/19 10:16:50;;;;;;;5.53;3.17;;;;;;;11.49;100.00;92734.91;4938478;28;20027;-78
2023/05/19 10:19:19;;;;;;;17.23;11.20;;;;;;;11.79;100.00;92726.56;4953923;28;20031;-78
2023/05/19 10:21:45;;;;;;;17.42;11.50;;;;;;;11.76;100.00;92721.13;4958709;28;20093;-78
2023/05/19 10:24:11;;;;;;;13.30;9.35;;;;;;;11.70;100.00;92723.03;4926486;29;20106;-78
2023/05/19 10:26:38;;;;;;;9.75;6.80;;;;;;;11.85;100.00;92722.78;4954033;28;20035;-78
2023/05/19 10:29:05;;;;;;;4.90;2.92;;;;;;;11.61;100.00;92727.38;4953499;28;20359;-75
2023/05/19 10:31:33;;;;;;;8.63;5.40;;;;;;;11.61;100.00;92730.75;4951826;28;20094;-76
2023/05/19 10:34:13;;;;;;;72.18;5.95;;;;;;;11.50;100.00;92723.34;4951873;28;20110;-76
2023/05/19 10:36:58;;;;;;;300.23;12.38;;;;;;;11.45;100.00;92727.59;4939360;28;20039;-78
2023/05/19 10:39:36;;;;;;;52.08;6.57;;;;;;;11.54;100.00;92730.34;4956596;28;20039;-77
2023/05/19 10:42:15;;;;;;;7.30;4.90;;;;;;;11.46;100.00;92731.03;4954430;28;20090;-78
2023/05/19 10:45:06;;;;;;;7.18;5.00;;;;;;;11.38;100.00;92726.41;4948389;28;20035;-75
2023/05/19 10:47:35;;;;;;;6.97;5.00;;;;;;;11.59;100.00;92711.91;4952487;28;20583;-77
2023/05/19 10:50:00;;;;;;;8.93;4.95;;;;;;;11.46;100.00;92718.69;4934967;29;20039;-77
2023/05/19 10:52:28;;;;;;;80.05;7.22;;;;;;;11.29;100.00;92726.28;4937648;29;20043;-78
2023/05/19 10:54:54;;;;;;;599.75;17.75;;;;;;;11.18;100.00;92723.00;4954985;28;20059;-77
2023/05/19 10:57:27;;;;;;;6.38;4.43;;;;;;;11.28;100.00;92724.72;4953334;29;20070;-77
2023/05/19 10:59:54;;;;;;;;;;;;;;;11.23;100.00;92715.06;4950769;28;20054;-76
2023/05/19 11:02:42;;;;;;;9.68;4.45;;;;;;;11.26;100.00;92716.38;4953489;28;19914;-77
2023/05/19 11:05:13;;;;;;;5.60;3.80;;;;;;;11.22;100.00;92712.75;4952777;28;20028;-76
2023/05/19 11:07:55;;;;;;;6.28;4.22;;;;;;;11.32;100.00;92722.31;4951646;29;20041;-76
2023/05/19 11:10:22;;;;;;;6.25;4.53;;;;;;;11.37;100.00;92716.97;4949186;28;20042;-76
2023/05/19 11:12:49;;;;;;;8.57;5.13;;;;;;;11.45;100.00;92722.34;4949794;28;20039;-76
2023/05/19 11:15:15;;;;;;;6.00;4.10;;;;;;;11.38;100.00;92711.47;4950013;29;20043;-77
2023/05/19 11:17:44;;;;;;;6.57;4.88;;;;;;;11.54;100.00;92714.63;4951716;29;20035;-77
2023/05/19 11:20:24;;;;;;;6.95;5.25;;;;;;;11.64;100.00;92708.44;4950898;29;20105;-77
2023/05/19 11:23:02;;;;;;;10.95;5.88;;;;;;;11.64;100.00;92711.06;4952861;28;20454;-78